Asian Infinity — 3EVP3 — position and weather

sailwx.info

Track history (hours):
 
Tides and Currents Weather Stations Pressure Air Temp Water Temp Dewpoint Dewpoint Depression Visibility Wind Speed Wind Dir Waves Ship Positions

Asian Infinity

Last reported at 2015-Aug-30 21:27 UTC. Time now 2015-Sep-01 20:22 UTC.
Position N 37°27' E 123°24'.

Length 104 m; draft 7.2 m.

Type: Cargo ship. MMSI: 351868000.

Date/timePositionNaut miles runAvg speedWind from/ knotsBaromVisibWave heightAir tempDewpointWater temp
2015-Aug-30 21:27N 37°27' E 123°24'2110.3
2015-Aug-30 19:28N 37°44' E 123°09'6011.6
2015-Aug-30 14:19N 37°51' E 121°54'1210.7
2015-Aug-30 13:14N 37°54' E 121°39'711.1
2015-Aug-30 12:33N 37°55' E 121°30'1211.5
2015-Aug-30 11:32N 37°56' E 121°15'163 3.6
2015-Aug-28 13:33N 38°56' E 118°01'1010.1
2015-Aug-28 12:33N 38°58' E 117°48'2 2.3
2015-Aug-28 11:27N 38°59' E 117°45'0 0.0
2015-Aug-28 10:33N 38°59' E 117°45'0 0.0
2015-Aug-28 09:33N 38°59' E 117°45'0 0.0
2015-Aug-28 08:33N 38°59' E 117°45'0 0.0
2015-Aug-28 07:15N 38°59' E 117°45'0 0.0
2015-Aug-28 06:33N 38°59' E 117°45'0 0.0
2015-Aug-28 05:27N 38°59' E 117°45'0 0.0
2015-Aug-28 04:27N 38°59' E 117°45'0 0.0
2015-Aug-28 03:33N 38°59' E 117°45'0 0.0
2015-Aug-28 02:33N 38°59' E 117°45'3 3.3
2015-Aug-28 01:34N 38°58' E 117°49'1110.0
2015-Aug-28 00:29N 38°57' E 118°03'46 6.6
2015-Aug-27 17:31N 38°47' E 119°01'1010.8
2015-Aug-27 16:33N 38°45' E 119°14'2411.1
2015-Aug-27 14:22N 38°45' E 119°45'7510.5
2015-Aug-27 07:14N 38°31' E 121°19'1710.3
2015-Aug-27 05:32N 38°34' E 121°41'1111.0
2015-Aug-27 04:33N 38°45' E 121°44'1111.1
2015-Aug-27 03:33N 38°56' E 121°46'5 2.2
2015-Aug-27 01:18N 39°01' E 121°45'0 0.0
2015-Aug-26 23:24N 39°01' E 121°45'0 0.0
2015-Aug-26 22:18N 39°01' E 121°45'0 0.0
2015-Aug-26 21:30N 39°01' E 121°45'0 0.0
2015-Aug-26 20:30N 39°01' E 121°45'0 0.0
2015-Aug-26 17:06N 39°01' E 121°45'0 0.0
2015-Aug-26 13:30N 39°01' E 121°45'0 0.0
2015-Aug-26 12:18N 39°01' E 121°45'0 0.0
2015-Aug-26 05:12N 39°01' E 121°45'3 3.7
2015-Aug-26 04:28N 38°59' E 121°47'8 9.1
2015-Aug-26 03:32N 38°50' E 121°48'1111.2
2015-Aug-26 02:33N 38°41' E 121°56'1211.2
2015-Aug-26 01:31N 38°33' E 122°06'7510.8
2015-Aug-25 18:32N 37°32' E 123°03'1211.4
2015-Aug-25 17:27N 37°20' E 123°02'1011.1
2015-Aug-25 16:32N 37°10' E 123°03'1010.3
2015-Aug-25 15:32N 36°59' E 123°04'11 9.7
2015-Aug-25 14:23N 36°48' E 123°02'348 8.1
2015-Aug-23 19:11N 31°02' E 122°18'5 8.7
2015-Aug-23 18:33N 31°03' E 122°11'9 8.8
2015-Aug-23 17:33N 31°05' E 122°01'1212.1
2015-Aug-23 16:33N 31°12' E 121°50'1313.1
2015-Aug-23 15:33N 31°21' E 121°39'8 7.9
2015-Aug-23 14:33N 31°22' E 121°30'0 0.1
2015-Aug-23 13:22N 31°22' E 121°30'0 0.0
2015-Aug-23 12:31N 31°22' E 121°30'0 0.0
2015-Aug-23 11:31N 31°22' E 121°30'0 0.0
2015-Aug-23 10:31N 31°22' E 121°30'0 0.0
2015-Aug-23 09:25N 31°22' E 121°30'0 0.0
2015-Aug-23 08:31N 31°22' E 121°30'0 0.0
2015-Aug-23 07:28N 31°22' E 121°30'0 0.0
2015-Aug-23 06:28N 31°22' E 121°30'0 0.0
2015-Aug-23 05:31N 31°22' E 121°30'0 0.0
2015-Aug-23 04:22N 31°22' E 121°30'0 0.0
2015-Aug-23 03:28N 31°22' E 121°30'0 0.0
2015-Aug-23 02:28N 31°22' E 121°30'0 0.0
2015-Aug-23 01:28N 31°22' E 121°30'0 0.0
2015-Aug-23 00:28N 31°22' E 121°30'0 0.0
2015-Aug-22 23:31N 31°22' E 121°30'0 0.0
2015-Aug-22 22:16N 31°22' E 121°30'0 0.0
2015-Aug-22 21:31N 31°22' E 121°30'0 0.0
2015-Aug-22 20:28N 31°22' E 121°30'0 0.0
2015-Aug-22 19:22N 31°22' E 121°30'0 0.0
2015-Aug-22 18:28N 31°22' E 121°30'0 0.0
2015-Aug-22 17:25N 31°22' E 121°30'0 0.0
2015-Aug-22 16:31N 31°22' E 121°30'0 0.0
2015-Aug-22 15:28N 31°22' E 121°30'0 0.0
2015-Aug-22 14:31N 31°22' E 121°30'0 0.0
2015-Aug-22 13:31N 31°22' E 121°30'0 0.0
2015-Aug-22 12:31N 31°22' E 121°30'0 0.0
2015-Aug-22 11:16N 31°22' E 121°30'0 0.0
2015-Aug-22 10:28N 31°22' E 121°30'0 0.0
2015-Aug-22 09:31N 31°22' E 121°30'0 0.0
2015-Aug-22 08:25N 31°22' E 121°30'0 0.0
2015-Aug-22 07:31N 31°22' E 121°30'0 0.0
2015-Aug-22 06:28N 31°22' E 121°30'0 0.0
2015-Aug-22 05:22N 31°22' E 121°30'0 0.0
2015-Aug-22 04:28N 31°22' E 121°30'0 0.0
2015-Aug-22 03:28N 31°22' E 121°30'0 0.0
2015-Aug-22 02:28N 31°22' E 121°30'0 0.0
2015-Aug-22 01:28N 31°22' E 121°30'0 0.0
2015-Aug-22 00:22N 31°22' E 121°30'0 0.0
2015-Aug-21 23:22N 31°22' E 121°30'1 0.9
2015-Aug-21 22:33N 31°23' E 121°30'3 3.5
2015-Aug-21 21:34N 31°23' E 121°34'9 8.5
2015-Aug-21 20:34N 31°19' E 121°43'1211.9
2015-Aug-21 19:34N 31°10' E 121°52'1211.6
2015-Aug-21 18:33N 31°05' E 122°04'1111.1
2015-Aug-21 17:33N 31°03' E 122°16'17 1.2
2015-Aug-21 03:05N 31°01' E 122°36'  
Track history (hours):
 
Tides and Currents Weather Stations Pressure Air Temp Water Temp Dewpoint Dewpoint Depression Visibility Wind Speed Wind Dir Waves Ship Positions

Asian Infinity

Last reported at 2015-Aug-30 21:27 UTC. Time now 2015-Sep-01 20:22 UTC.
Position N 37°27' E 123°24'.

Length 104 m; draft 7.2 m.

Type: Cargo ship. MMSI: 351868000.

Date/timePositionNaut miles runAvg speedWind from/ knotsBaromVisibWave heightAir tempDewpointWater temp
2015-Aug-30 21:27N 37°27' E 123°24'2110.3
2015-Aug-30 19:28N 37°44' E 123°09'6011.6
2015-Aug-30 14:19N 37°51' E 121°54'1210.7
2015-Aug-30 13:14N 37°54' E 121°39'711.1
2015-Aug-30 12:33N 37°55' E 121°30'1211.5
2015-Aug-30 11:32N 37°56' E 121°15'163 3.6
2015-Aug-28 13:33N 38°56' E 118°01'1010.1
2015-Aug-28 12:33N 38°58' E 117°48'2 2.3
2015-Aug-28 11:27N 38°59' E 117°45'0 0.0
2015-Aug-28 10:33N 38°59' E 117°45'0 0.0
2015-Aug-28 09:33N 38°59' E 117°45'0 0.0
2015-Aug-28 08:33N 38°59' E 117°45'0 0.0
2015-Aug-28 07:15N 38°59' E 117°45'0 0.0
2015-Aug-28 06:33N 38°59' E 117°45'0 0.0
2015-Aug-28 05:27N 38°59' E 117°45'0 0.0
2015-Aug-28 04:27N 38°59' E 117°45'0 0.0
2015-Aug-28 03:33N 38°59' E 117°45'0 0.0
2015-Aug-28 02:33N 38°59' E 117°45'3 3.3
2015-Aug-28 01:34N 38°58' E 117°49'1110.0
2015-Aug-28 00:29N 38°57' E 118°03'46 6.6
2015-Aug-27 17:31N 38°47' E 119°01'1010.8
2015-Aug-27 16:33N 38°45' E 119°14'2411.1
2015-Aug-27 14:22N 38°45' E 119°45'7510.5
2015-Aug-27 07:14N 38°31' E 121°19'1710.3
2015-Aug-27 05:32N 38°34' E 121°41'1111.0
2015-Aug-27 04:33N 38°45' E 121°44'1111.1
2015-Aug-27 03:33N 38°56' E 121°46'5 2.2
2015-Aug-27 01:18N 39°01' E 121°45'0 0.0
2015-Aug-26 23:24N 39°01' E 121°45'0 0.0
2015-Aug-26 22:18N 39°01' E 121°45'0 0.0
2015-Aug-26 21:30N 39°01' E 121°45'0 0.0
2015-Aug-26 20:30N 39°01' E 121°45'0 0.0
2015-Aug-26 17:06N 39°01' E 121°45'0 0.0
2015-Aug-26 13:30N 39°01' E 121°45'0 0.0
2015-Aug-26 12:18N 39°01' E 121°45'0 0.0
2015-Aug-26 05:12N 39°01' E 121°45'3 3.7
2015-Aug-26 04:28N 38°59' E 121°47'8 9.1
2015-Aug-26 03:32N 38°50' E 121°48'1111.2
2015-Aug-26 02:33N 38°41' E 121°56'1211.2
2015-Aug-26 01:31N 38°33' E 122°06'7510.8
2015-Aug-25 18:32N 37°32' E 123°03'1211.4
2015-Aug-25 17:27N 37°20' E 123°02'1011.1
2015-Aug-25 16:32N 37°10' E 123°03'1010.3
2015-Aug-25 15:32N 36°59' E 123°04'11 9.7
2015-Aug-25 14:23N 36°48' E 123°02'348 8.1
2015-Aug-23 19:11N 31°02' E 122°18'5 8.7
2015-Aug-23 18:33N 31°03' E 122°11'9 8.8
2015-Aug-23 17:33N 31°05' E 122°01'1212.1
2015-Aug-23 16:33N 31°12' E 121°50'1313.1
2015-Aug-23 15:33N 31°21' E 121°39'8 7.9
2015-Aug-23 14:33N 31°22' E 121°30'0 0.1
2015-Aug-23 13:22N 31°22' E 121°30'0 0.0
2015-Aug-23 12:31N 31°22' E 121°30'0 0.0
2015-Aug-23 11:31N 31°22' E 121°30'0 0.0
2015-Aug-23 10:31N 31°22' E 121°30'0 0.0
2015-Aug-23 09:25N 31°22' E 121°30'0 0.0
2015-Aug-23 08:31N 31°22' E 121°30'0 0.0
2015-Aug-23 07:28N 31°22' E 121°30'0 0.0
2015-Aug-23 06:28N 31°22' E 121°30'0 0.0
2015-Aug-23 05:31N 31°22' E 121°30'0 0.0
2015-Aug-23 04:22N 31°22' E 121°30'0 0.0
2015-Aug-23 03:28N 31°22' E 121°30'0 0.0
2015-Aug-23 02:28N 31°22' E 121°30'0 0.0
2015-Aug-23 01:28N 31°22' E 121°30'0 0.0
2015-Aug-23 00:28N 31°22' E 121°30'0 0.0
2015-Aug-22 23:31N 31°22' E 121°30'0 0.0
2015-Aug-22 22:16N 31°22' E 121°30'0 0.0
2015-Aug-22 21:31N 31°22' E 121°30'0 0.0
2015-Aug-22 20:28N 31°22' E 121°30'0 0.0
2015-Aug-22 19:22N 31°22' E 121°30'0 0.0
2015-Aug-22 18:28N 31°22' E 121°30'0 0.0
2015-Aug-22 17:25N 31°22' E 121°30'0 0.0
2015-Aug-22 16:31N 31°22' E 121°30'0 0.0
2015-Aug-22 15:28N 31°22' E 121°30'0 0.0
2015-Aug-22 14:31N 31°22' E 121°30'0 0.0
2015-Aug-22 13:31N 31°22' E 121°30'0 0.0
2015-Aug-22 12:31N 31°22' E 121°30'0 0.0
2015-Aug-22 11:16N 31°22' E 121°30'0 0.0
2015-Aug-22 10:28N 31°22' E 121°30'0 0.0
2015-Aug-22 09:31N 31°22' E 121°30'0 0.0
2015-Aug-22 08:25N 31°22' E 121°30'0 0.0
2015-Aug-22 07:31N 31°22' E 121°30'0 0.0
2015-Aug-22 06:28N 31°22' E 121°30'0 0.0
2015-Aug-22 05:22N 31°22' E 121°30'0 0.0
2015-Aug-22 04:28N 31°22' E 121°30'0 0.0
2015-Aug-22 03:28N 31°22' E 121°30'0 0.0
2015-Aug-22 02:28N 31°22' E 121°30'0 0.0
2015-Aug-22 01:28N 31°22' E 121°30'0 0.0
2015-Aug-22 00:22N 31°22' E 121°30'0 0.0
2015-Aug-21 23:22N 31°22' E 121°30'1 0.9
2015-Aug-21 22:33N 31°23' E 121°30'3 3.5
2015-Aug-21 21:34N 31°23' E 121°34'9 8.5
2015-Aug-21 20:34N 31°19' E 121°43'1211.9
2015-Aug-21 19:34N 31°10' E 121°52'1211.6
2015-Aug-21 18:33N 31°05' E 122°04'1111.1
2015-Aug-21 17:33N 31°03' E 122°16'17 1.2
2015-Aug-21 03:05N 31°01' E 122°36'  

Dump ship's entire track history